Time;durP1;ratioP1;P1;durP2;ratioP2;P2;SDS_P1;SDS_P2;PMS_P1;PMS_P2;Temp;Humidity;BMP_temperature;BMP_pressure;BME280_temperature;BME280_humidity;BME280_pressure;Samples;Min_cycle;Max_cycle;Signal;HPM_P1;HPM_P2
2022/01/09 00:02:01;;;;;;;293.92;78.57;;;;;;;;;;4959147;28;20097;-67
2022/01/09 00:04:29;;;;;;;238.05;69.88;;;;;;;;;;4975382;28;20082;-66
2022/01/09 00:06:56;;;;;;;261.27;68.05;;;;;;;;;;4980572;28;20027;-66
2022/01/09 00:09:24;;;;;;;249.77;64.78;;;;;;;;;;5016346;28;20025;-67
2022/01/09 00:11:51;;;;;;;266.00;67.38;;;;;;;;;;5016178;28;20045;-67
2022/01/09 00:14:19;;;;;;;249.88;67.07;;;;;;;;;;5016261;28;20026;-67
2022/01/09 00:16:47;;;;;;;234.13;62.90;;;;;;;;;;5016210;28;20052;-68
2022/01/09 00:19:14;;;;;;;229.23;62.00;;;;;;;;;;5016048;28;20053;-68
2022/01/09 00:21:42;;;;;;;210.57;59.97;;;;;;;;;;5016102;28;20022;-67
2022/01/09 00:24:10;;;;;;;216.30;62.28;;;;;;;;;;5014941;28;20022;-67
2022/01/09 00:26:37;;;;;;;196.30;57.42;;;;;;;;;;5016023;28;20089;-67
2022/01/09 00:29:07;;;;;;;209.18;58.13;;;;;;;;;;5015050;28;20030;-67
2022/01/09 00:31:34;;;;;;;164.98;53.53;;;;;;;;;;5016097;28;20349;-67
2022/01/09 00:34:02;;;;;;;199.52;58.63;;;;;;;;;;5016037;28;20026;-67
2022/01/09 00:36:30;;;;;;;190.60;56.80;;;;;;;;;;5016025;28;20033;-67
2022/01/09 00:38:58;;;;;;;196.60;56.50;;;;;;;;;;5016180;28;20034;-67
2022/01/09 00:41:26;;;;;;;170.10;53.90;;;;;;;;;;5015938;28;20022;-67
2022/01/09 00:43:53;;;;;;;190.43;52.72;;;;;;;;;;5015931;28;20029;-67
2022/01/09 00:46:20;;;;;;;178.25;55.42;;;;;;;;;;5015852;28;20025;-68
2022/01/09 00:48:48;;;;;;;173.23;52.60;;;;;;;;;;5015974;28;20172;-68
2022/01/09 00:51:14;;;;;;;178.07;57.47;;;;;;;;;;5015761;28;20101;-68
2022/01/09 00:53:42;;;;;;;182.75;57.33;;;;;;;;;;5015720;28;20109;-68
2022/01/09 00:56:09;;;;;;;179.20;55.72;;;;;;;;;;5015830;28;20034;-67
2022/01/09 00:58:37;;;;;;;172.02;53.20;;;;;;;;;;5014632;28;20034;-66
2022/01/09 01:01:05;;;;;;;164.98;51.03;;;;;;;;;;5015914;28;20434;-67
2022/01/09 01:03:32;;;;;;;171.75;52.22;;;;;;;;;;5014693;28;20423;-67
2022/01/09 01:06:00;;;;;;;150.90;49.85;;;;;;;;;;5014552;28;20026;-67
2022/01/09 01:08:28;;;;;;;166.48;52.75;;;;;;;;;;5015747;28;20036;-68
2022/01/09 01:10:55;;;;;;;166.25;52.60;;;;;;;;;;5015702;28;20076;-67
2022/01/09 01:13:23;;;;;;;160.45;51.78;;;;;;;;;;5015655;28;20026;-67
2022/01/09 01:15:50;;;;;;;160.13;51.42;;;;;;;;;;5014450;28;20083;-67
2022/01/09 01:18:18;;;;;;;169.23;52.58;;;;;;;;;;5015473;28;20117;-67
2022/01/09 01:20:45;;;;;;;161.63;50.08;;;;;;;;;;5015665;28;20093;-65
2022/01/09 01:23:13;;;;;;;151.85;46.75;;;;;;;;;;5015396;28;20445;-66
2022/01/09 01:25:44;;;;;;;144.85;47.70;;;;;;;;;;5015497;28;20053;-66
2022/01/09 01:28:12;;;;;;;159.05;49.70;;;;;;;;;;5015387;28;20030;-67
2022/01/09 01:30:39;;;;;;;153.95;49.15;;;;;;;;;;5018678;28;20026;-67
2022/01/09 01:33:07;;;;;;;159.10;50.00;;;;;;;;;;5017850;28;20323;-67
2022/01/09 01:35:34;;;;;;;174.90;52.40;;;;;;;;;;5018952;28;20029;-67
2022/01/09 01:38:02;;;;;;;159.98;49.95;;;;;;;;;;5017712;28;20036;-68
2022/01/09 01:40:29;;;;;;;154.80;51.05;;;;;;;;;;5018784;28;20026;-68
2022/01/09 01:42:56;;;;;;;154.10;49.15;;;;;;;;;;5018956;28;20049;-68
2022/01/09 01:45:24;;;;;;;174.07;54.83;;;;;;;;;;5018766;28;20321;-68
2022/01/09 01:47:52;;;;;;;149.48;50.83;;;;;;;;;;5018767;28;20105;-67
2022/01/09 01:50:19;;;;;;;154.15;52.13;;;;;;;;;;5017373;28;20053;-67
2022/01/09 01:52:49;;;;;;;168.27;56.28;;;;;;;;;;5018522;28;20037;-67
2022/01/09 01:55:17;;;;;;;157.23;51.28;;;;;;;;;;5018679;28;20025;-66
2022/01/09 01:57:45;;;;;;;167.27;56.17;;;;;;;;;;5018681;28;20455;-67
2022/01/09 02:00:14;;;;;;;155.25;52.38;;;;;;;;;;5018323;28;20040;-68
2022/01/09 02:02:42;;;;;;;181.43;65.53;;;;;;;;;;5018309;28;20025;-67
2022/01/09 02:05:12;;;;;;;175.23;53.00;;;;;;;;;;5018322;28;20026;-67
2022/01/09 02:07:41;;;;;;;177.98;54.25;;;;;;;;;;5018439;28;20045;-67
2022/01/09 02:10:09;;;;;;;189.38;61.33;;;;;;;;;;5018333;28;20021;-67
2022/01/09 02:12:38;;;;;;;178.63;55.85;;;;;;;;;;5018641;28;20358;-67
2022/01/09 02:15:25;;;;;;;151.27;49.03;;;;;;;;;;5018309;28;20018;-68
2022/01/09 02:17:53;;;;;;;178.15;52.97;;;;;;;;;;5018000;28;20323;-68
2022/01/09 02:20:20;;;;;;;153.25;49.33;;;;;;;;;;5018044;28;20101;-67
2022/01/09 02:22:47;;;;;;;170.57;51.50;;;;;;;;;;5018005;28;20050;-67
2022/01/09 02:25:15;;;;;;;176.10;51.17;;;;;;;;;;5018273;28;20050;-68
2022/01/09 02:27:43;;;;;;;184.38;55.85;;;;;;;;;;5018039;28;20056;-67
2022/01/09 02:30:11;;;;;;;175.90;54.28;;;;;;;;;;5018088;28;20053;-68
2022/01/09 02:32:38;;;;;;;180.75;52.67;;;;;;;;;;5017978;28;20029;-68
2022/01/09 02:35:06;;;;;;;212.35;58.40;;;;;;;;;;5017931;28;20097;-68
2022/01/09 02:37:34;;;;;;;164.05;51.80;;;;;;;;;;5016838;28;20454;-68
2022/01/09 02:40:02;;;;;;;147.70;47.63;;;;;;;;;;5017153;28;20057;-68
2022/01/09 02:42:31;;;;;;;140.90;46.80;;;;;;;;;;5017161;28;20411;-68
2022/01/09 02:44:59;;;;;;;142.30;48.30;;;;;;;;;;5017716;28;20049;-68
2022/01/09 02:47:31;;;;;;;148.00;49.67;;;;;;;;;;5017660;28;20022;-67
2022/01/09 02:50:05;;;;;;;159.07;48.78;;;;;;;;;;5017477;28;20072;-68
2022/01/09 02:52:36;;;;;;;142.52;46.35;;;;;;;;;;5017541;28;20034;-67
2022/01/09 02:55:14;;;;;;;147.98;48.00;;;;;;;;;;5016440;28;20026;-67
2022/01/09 02:57:42;;;;;;;155.23;49.15;;;;;;;;;;5017166;28;20375;-68
2022/01/09 03:00:11;;;;;;;138.15;46.00;;;;;;;;;;5017064;28;20037;-68
2022/01/09 03:02:39;;;;;;;166.45;60.00;;;;;;;;;;5017089;28;20698;-68
2022/01/09 03:05:08;;;;;;;171.40;60.80;;;;;;;;;;5017113;28;20364;-68
2022/01/09 03:07:35;;;;;;;189.27;71.78;;;;;;;;;;5017169;28;20403;-68
2022/01/09 03:10:04;;;;;;;154.25;52.17;;;;;;;;;;5015783;28;20466;-68
2022/01/09 03:12:33;;;;;;;169.32;51.03;;;;;;;;;;5016880;28;20105;-68
2022/01/09 03:15:00;;;;;;;167.55;59.58;;;;;;;;;;5016966;28;20026;-67
2022/01/09 03:17:28;;;;;;;160.07;52.67;;;;;;;;;;5015913;28;20038;-68
2022/01/09 03:19:56;;;;;;;154.13;50.50;;;;;;;;;;5015691;28;20022;-67
2022/01/09 03:22:23;;;;;;;158.70;52.00;;;;;;;;;;5016804;28;20025;-67
2022/01/09 03:24:50;;;;;;;152.10;54.22;;;;;;;;;;5016780;28;20021;-66
2022/01/09 03:27:18;;;;;;;164.38;52.25;;;;;;;;;;5016809;28;20030;-68
2022/01/09 03:29:45;;;;;;;169.25;59.88;;;;;;;;;;5015680;28;20072;-67
2022/01/09 03:32:13;;;;;;;161.15;56.75;;;;;;;;;;5016674;28;20026;-67
2022/01/09 03:34:40;;;;;;;173.23;55.97;;;;;;;;;;5016663;28;20053;-66
2022/01/09 03:37:08;;;;;;;165.70;55.10;;;;;;;;;;5016777;28;20032;-67
2022/01/09 03:39:35;;;;;;;178.27;62.95;;;;;;;;;;5017049;28;20109;-67
2022/01/09 03:42:03;;;;;;;240.15;93.00;;;;;;;;;;5016468;28;20022;-67
2022/01/09 03:44:30;;;;;;;199.73;73.20;;;;;;;;;;5016502;28;20041;-68
2022/01/09 03:46:58;;;;;;;177.85;58.65;;;;;;;;;;5016576;28;20021;-68
2022/01/09 03:49:24;;;;;;;195.50;68.85;;;;;;;;;;5016225;28;20025;-67
2022/01/09 03:51:53;;;;;;;215.27;77.22;;;;;;;;;;5016019;28;20034;-67
2022/01/09 03:54:21;;;;;;;164.50;55.05;;;;;;;;;;5016307;28;20033;-67
2022/01/09 03:56:52;;;;;;;191.80;64.43;;;;;;;;;;5016517;28;20463;-67
2022/01/09 03:59:21;;;;;;;170.43;55.83;;;;;;;;;;5016483;28;20097;-66
2022/01/09 04:01:49;;;;;;;178.60;56.13;;;;;;;;;;5015383;28;20495;-67
2022/01/09 04:04:16;;;;;;;203.27;64.63;;;;;;;;;;5016424;28;20047;-67
2022/01/09 04:06:49;;;;;;;200.98;66.28;;;;;;;;;;5016255;28;20029;-66
2022/01/09 04:09:28;;;;;;;177.32;59.00;;;;;;;;;;5016300;28;20026;-66
2022/01/09 04:12:03;;;;;;;182.70;58.72;;;;;;;;;;5016138;28;20026;-66
2022/01/09 04:14:31;;;;;;;188.82;62.15;;;;;;;;;;5016114;28;20352;-66
2022/01/09 04:17:01;;;;;;;175.27;57.05;;;;;;;;;;5016159;28;20339;-67
2022/01/09 04:19:28;;;;;;;175.73;53.00;;;;;;;;;;5016069;28;20050;-65
2022/01/09 04:21:56;;;;;;;158.43;52.67;;;;;;;;;;5016379;28;20077;-65
2022/01/09 04:24:23;;;;;;;180.48;54.03;;;;;;;;;;5016046;28;20022;-65
2022/01/09 04:26:54;;;;;;;185.65;54.72;;;;;;;;;;5016014;28;20022;-65
2022/01/09 04:29:21;;;;;;;174.00;58.55;;;;;;;;;;5014859;28;20057;-65
2022/01/09 04:31:50;;;;;;;184.20;65.18;;;;;;;;;;5015922;28;20030;-65
2022/01/09 04:34:17;;;;;;;177.38;58.05;;;;;;;;;;5015958;28;20036;-65
2022/01/09 04:36:45;;;;;;;177.25;63.22;;;;;;;;;;5015960;28;20026;-66
2022/01/09 04:39:13;;;;;;;169.45;55.58;;;;;;;;;;5016052;28;20080;-66
2022/01/09 04:41:40;;;;;;;185.52;64.57;;;;;;;;;;5015627;28;20026;-68
2022/01/09 04:44:08;;;;;;;194.93;67.60;;;;;;;;;;5015741;28;20422;-68
2022/01/09 04:46:45;;;;;;;179.73;58.20;;;;;;;;;;5015793;28;20032;-66
2022/01/09 04:49:13;;;;;;;180.10;61.25;;;;;;;;;;5015626;28;20480;-66
2022/01/09 04:51:40;;;;;;;180.52;61.15;;;;;;;;;;5014402;28;20042;-67
2022/01/09 04:54:08;;;;;;;194.20;62.58;;;;;;;;;;5015755;28;20080;-67
2022/01/09 04:56:35;;;;;;;180.07;59.60;;;;;;;;;;5014481;28;20113;-66
2022/01/09 04:59:03;;;;;;;174.45;57.33;;;;;;;;;;5015623;28;20030;-66
2022/01/09 05:01:31;;;;;;;184.50;58.30;;;;;;;;;;5015607;28;20018;-67
2022/01/09 05:03:59;;;;;;;177.65;55.70;;;;;;;;;;5016437;28;20022;-67
2022/01/09 05:06:27;;;;;;;186.20;58.17;;;;;;;;;;5019537;28;20297;-66
2022/01/09 05:08:54;;;;;;;184.45;59.90;;;;;;;;;;5019265;28;20026;-68
2022/01/09 05:11:22;;;;;;;198.60;61.08;;;;;;;;;;5019152;28;20030;-69
2022/01/09 05:13:50;;;;;;;217.55;70.00;;;;;;;;;;5018117;28;20026;-69
2022/01/09 05:16:17;;;;;;;182.82;58.72;;;;;;;;;;5018188;28;20026;-68
2022/01/09 05:19:01;;;;;;;176.65;59.90;;;;;;;;;;5019033;28;20032;-68
2022/01/09 05:21:29;;;;;;;178.77;56.80;;;;;;;;;;5019083;28;20034;-68
2022/01/09 05:23:56;;;;;;;200.65;66.63;;;;;;;;;;5019080;28;20399;-67
2022/01/09 05:26:24;;;;;;;189.10;63.30;;;;;;;;;;5019082;28;20022;-67
2022/01/09 05:28:52;;;;;;;188.30;61.08;;;;;;;;;;5018898;28;20026;-68
2022/01/09 05:31:19;;;;;;;192.32;62.08;;;;;;;;;;5017714;28;20446;-69
2022/01/09 05:33:47;;;;;;;193.15;68.15;;;;;;;;;;5017794;28;20034;-69
2022/01/09 05:36:14;;;;;;;188.73;62.42;;;;;;;;;;5018846;28;20026;-68
2022/01/09 05:38:42;;;;;;;193.00;64.68;;;;;;;;;;5018672;28;20056;-68
2022/01/09 05:41:09;;;;;;;185.15;61.58;;;;;;;;;;5018631;28;20105;-68
2022/01/09 05:43:40;;;;;;;207.88;71.57;;;;;;;;;;5018886;28;20026;-68
2022/01/09 05:46:08;;;;;;;196.38;64.68;;;;;;;;;;5018880;28;20018;-68
2022/01/09 05:48:35;;;;;;;211.75;69.95;;;;;;;;;;5017437;28;20101;-67
2022/01/09 05:51:01;;;;;;;193.93;68.75;;;;;;;;;;5017300;28;20045;-69
2022/01/09 05:53:29;;;;;;;188.73;69.95;;;;;;;;;;5018706;28;20025;-68
2022/01/09 05:55:57;;;;;;;185.48;62.65;;;;;;;;;;5018660;28;20034;-68
2022/01/09 05:58:24;;;;;;;196.10;65.40;;;;;;;;;;5018441;28;20029;-68
2022/01/09 06:00:52;;;;;;;171.93;59.10;;;;;;;;;;5018061;28;20060;-68
2022/01/09 06:03:19;;;;;;;173.63;58.00;;;;;;;;;;5018298;28;20029;-70
2022/01/09 06:05:47;;;;;;;163.05;55.63;;;;;;;;;;5017204;28;20029;-67
2022/01/09 06:08:14;;;;;;;173.23;59.22;;;;;;;;;;5018130;28;20017;-67
2022/01/09 06:10:42;;;;;;;176.50;59.97;;;;;;;;;;5018025;28;20022;-69
2022/01/09 06:13:10;;;;;;;188.80;63.15;;;;;;;;;;5017978;28;20032;-68
2022/01/09 06:15:37;;;;;;;169.68;58.95;;;;;;;;;;5017892;28;20022;-68
2022/01/09 06:18:06;;;;;;;176.52;60.08;;;;;;;;;;5016777;28;20048;-69
2022/01/09 06:20:33;;;;;;;176.07;60.88;;;;;;;;;;5016830;28;20034;-69
2022/01/09 06:23:01;;;;;;;191.20;66.75;;;;;;;;;;5016752;28;20022;-69
2022/01/09 06:25:32;;;;;;;177.50;61.08;;;;;;;;;;5016896;28;20022;-67
2022/01/09 06:27:59;;;;;;;171.18;59.60;;;;;;;;;;5016888;28;20033;-68
2022/01/09 06:30:27;;;;;;;180.30;64.05;;;;;;;;;;5017801;28;20022;-68
2022/01/09 06:32:55;;;;;;;168.77;59.75;;;;;;;;;;5017824;28;20371;-68
2022/01/09 06:35:22;;;;;;;173.23;60.00;;;;;;;;;;5017584;28;20434;-68
2022/01/09 06:37:50;;;;;;;170.52;59.78;;;;;;;;;;5017658;28;20319;-68
2022/01/09 06:40:18;;;;;;;160.35;57.72;;;;;;;;;;5017853;28;20034;-66
2022/01/09 06:42:46;;;;;;;176.65;63.45;;;;;;;;;;5017601;28;20041;-67
2022/01/09 06:45:13;;;;;;;173.18;60.53;;;;;;;;;;5017618;28;20109;-68
2022/01/09 06:47:41;;;;;;;178.82;60.53;;;;;;;;;;5017586;28;20025;-69
2022/01/09 06:50:10;;;;;;;160.45;59.03;;;;;;;;;;5017345;28;20058;-68
2022/01/09 06:52:38;;;;;;;177.25;60.28;;;;;;;;;;5017462;28;20045;-69
2022/01/09 06:55:06;;;;;;;167.32;58.00;;;;;;;;;;5016175;28;20081;-68
2022/01/09 06:57:34;;;;;;;180.55;60.80;;;;;;;;;;5017176;28;20022;-68
2022/01/09 07:00:01;;;;;;;209.50;71.97;;;;;;;;;;5017216;28;20080;-68
2022/01/09 07:02:29;;;;;;;167.77;62.70;;;;;;;;;;5017254;28;20061;-69
2022/01/09 07:04:57;;;;;;;186.40;68.35;;;;;;;;;;5017517;28;20415;-68
2022/01/09 07:07:25;;;;;;;182.90;62.25;;;;;;;;;;5017395;28;20053;-67
2022/01/09 07:09:52;;;;;;;178.95;62.70;;;;;;;;;;5016134;28;20416;-67
2022/01/09 07:12:20;;;;;;;174.55;66.47;;;;;;;;;;5017250;28;20061;-69
2022/01/09 07:14:48;;;;;;;187.75;67.03;;;;;;;;;;5016026;28;20022;-69
2022/01/09 07:17:15;;;;;;;190.45;66.75;;;;;;;;;;5017058;28;20157;-68
2022/01/09 07:19:43;;;;;;;193.65;68.55;;;;;;;;;;5015909;28;20374;-66
2022/01/09 07:22:11;;;;;;;182.55;62.72;;;;;;;;;;5015988;28;20026;-68
2022/01/09 07:24:39;;;;;;;190.77;65.13;;;;;;;;;;5017175;28;20037;-67
2022/01/09 07:27:07;;;;;;;184.55;68.10;;;;;;;;;;5015462;28;20030;-68
2022/01/09 07:29:34;;;;;;;178.82;68.47;;;;;;;;;;5015877;28;20029;-69
2022/01/09 07:32:03;;;;;;;184.65;67.18;;;;;;;;;;5016827;28;20080;-69
2022/01/09 07:34:31;;;;;;;200.60;76.32;;;;;;;;;;5016707;28;20029;-68
2022/01/09 07:36:58;;;;;;;190.93;69.35;;;;;;;;;;5016703;28;20107;-69
2022/01/09 07:39:27;;;;;;;200.88;74.88;;;;;;;;;;5017093;28;20041;-68
2022/01/09 07:41:57;;;;;;;173.93;66.95;;;;;;;;;;5016572;28;20018;-69
2022/01/09 07:44:25;;;;;;;185.00;67.15;;;;;;;;;;5016685;28;20022;-69
2022/01/09 07:46:52;;;;;;;194.20;71.00;;;;;;;;;;5015394;28;20445;-69
2022/01/09 07:49:20;;;;;;;201.98;69.97;;;;;;;;;;5015302;28;20434;-68
2022/01/09 07:51:47;;;;;;;183.63;65.90;;;;;;;;;;5015926;28;20057;-69
2022/01/09 07:54:14;;;;;;;187.10;67.68;;;;;;;;;;5016582;28;20026;-68
2022/01/09 07:56:42;;;;;;;195.45;71.50;;;;;;;;;;5015076;28;20033;-68
2022/01/09 07:59:10;;;;;;;193.98;71.13;;;;;;;;;;5016066;28;20109;-69
2022/01/09 08:01:37;;;;;;;195.07;72.85;;;;;;;;;;5015099;28;20018;-69
2022/01/09 08:04:05;;;;;;;179.88;68.05;;;;;;;;;;5016333;28;20123;-69
2022/01/09 08:06:32;;;;;;;201.27;75.28;;;;;;;;;;5015042;28;20024;-68
2022/01/09 08:09:00;;;;;;;192.98;70.72;;;;;;;;;;5014953;28;20134;-69
2022/01/09 08:11:28;;;;;;;189.05;72.05;;;;;;;;;;5015983;28;20342;-68
2022/01/09 08:13:55;;;;;;;194.65;70.78;;;;;;;;;;5016150;28;20053;-69
2022/01/09 08:16:23;;;;;;;179.68;70.00;;;;;;;;;;5015903;28;20052;-68
2022/01/09 08:18:51;;;;;;;188.93;70.85;;;;;;;;;;5015812;28;20411;-68
2022/01/09 08:21:20;;;;;;;187.15;67.63;;;;;;;;;;5015926;28;20033;-70
2022/01/09 08:23:48;;;;;;;199.82;69.53;;;;;;;;;;5015034;28;20033;-69
2022/01/09 08:26:16;;;;;;;212.25;77.45;;;;;;;;;;5015875;28;20339;-69
2022/01/09 08:28:47;;;;;;;209.73;74.82;;;;;;;;;;5014864;28;20030;-69
2022/01/09 08:31:16;;;;;;;201.98;74.70;;;;;;;;;;5015958;28;20018;-69
2022/01/09 08:33:44;;;;;;;198.32;69.47;;;;;;;;;;5015867;28;20030;-69
2022/01/09 08:36:12;;;;;;;213.23;76.43;;;;;;;;;;5015824;28;20030;-69
2022/01/09 08:38:40;;;;;;;224.80;84.70;;;;;;;;;;5017979;28;20038;-68
2022/01/09 08:41:07;;;;;;;228.27;90.63;;;;;;;;;;5019955;28;20446;-69
2022/01/09 08:43:36;;;;;;;247.00;99.93;;;;;;;;;;5018872;28;20056;-68
2022/01/09 08:46:04;;;;;;;267.58;109.68;;;;;;;;;;5019631;28;20059;-69
2022/01/09 08:48:32;;;;;;;242.98;94.82;;;;;;;;;;5019420;28;20415;-68
2022/01/09 08:50:58;;;;;;;247.15;97.93;;;;;;;;;;5018491;28;20046;-69
2022/01/09 08:53:25;;;;;;;255.70;100.13;;;;;;;;;;5019879;28;20407;-68
2022/01/09 08:55:55;;;;;;;238.50;87.88;;;;;;;;;;5019568;28;20033;-69
2022/01/09 08:58:23;;;;;;;250.52;94.88;;;;;;;;;;5018485;28;20493;-69
2022/01/09 09:00:50;;;;;;;240.85;92.65;;;;;;;;;;5019558;28;20026;-68
2022/01/09 09:03:18;;;;;;;253.15;95.78;;;;;;;;;;5018383;28;20025;-69
2022/01/09 09:05:45;;;;;;;256.88;101.15;;;;;;;;;;5019535;28;20025;-69
2022/01/09 09:08:13;;;;;;;256.10;95.20;;;;;;;;;;5019292;28;20117;-69
2022/01/09 09:10:40;;;;;;;252.43;93.20;;;;;;;;;;5019180;28;20022;-68
2022/01/09 09:13:08;;;;;;;242.75;89.10;;;;;;;;;;5019245;28;20443;-69
2022/01/09 09:15:36;;;;;;;232.00;82.03;;;;;;;;;;5018856;28;20410;-69
2022/01/09 09:18:04;;;;;;;239.95;87.25;;;;;;;;;;5018306;28;20054;-69
2022/01/09 09:20:31;;;;;;;246.70;90.60;;;;;;;;;;5018895;28;20026;-69
2022/01/09 09:22:59;;;;;;;238.20;88.78;;;;;;;;;;5019119;28;20458;-69
2022/01/09 09:25:26;;;;;;;228.05;83.95;;;;;;;;;;5019056;28;20438;-69
2022/01/09 09:27:54;;;;;;;245.50;84.55;;;;;;;;;;5018982;28;20323;-68
2022/01/09 09:30:22;;;;;;;248.77;84.68;;;;;;;;;;5018899;28;20030;-70
2022/01/09 09:32:49;;;;;;;245.50;86.78;;;;;;;;;;5017687;28;20041;-69
2022/01/09 09:35:17;;;;;;;239.40;84.00;;;;;;;;;;5018766;28;20022;-69
2022/01/09 09:37:44;;;;;;;240.60;84.82;;;;;;;;;;5017662;28;20050;-69
2022/01/09 09:40:12;;;;;;;229.63;82.82;;;;;;;;;;5018716;28;20434;-69
2022/01/09 09:42:40;;;;;;;243.15;86.25;;;;;;;;;;5018821;28;20316;-69
2022/01/09 09:45:09;;;;;;;256.42;89.47;;;;;;;;;;5018744;28;20105;-69
2022/01/09 09:47:38;;;;;;;233.13;83.43;;;;;;;;;;5017419;28;20045;-69
2022/01/09 09:50:09;;;;;;;266.55;95.60;;;;;;;;;;5017879;28;20300;-69
2022/01/09 09:52:35;;;;;;;267.40;94.95;;;;;;;;;;5018646;28;20022;-69
2022/01/09 09:55:03;;;;;;;280.13;94.60;;;;;;;;;;5017434;28;20065;-68
2022/01/09 09:57:30;;;;;;;268.02;92.40;;;;;;;;;;5018609;28;20022;-68
2022/01/09 10:00:15;;;;;;;258.38;92.18;;;;;;;;;;5018476;28;20109;-69
2022/01/09 10:02:52;;;;;;;259.38;91.97;;;;;;;;;;5018250;28;20050;-68
2022/01/09 10:05:24;;;;;;;270.02;97.13;;;;;;;;;;5018269;28;20030;-68
2022/01/09 10:08:04;;;;;;;275.27;101.35;;;;;;;;;;5017144;28;20018;-68
2022/01/09 10:10:33;;;;;;;250.15;82.47;;;;;;;;;;5018102;28;20109;-68
2022/01/09 10:13:26;;;;;;;282.83;92.00;;;;;;;;;;5018174;28;20029;-67
2022/01/09 10:15:58;;;;;;;247.10;85.72;;;;;;;;;;5015426;28;20045;-68
2022/01/09 10:18:44;;;;;;;268.33;94.70;;;;;;;;;;5018248;28;20022;-68
2022/01/09 10:21:14;;;;;;;259.00;86.63;;;;;;;;;;5017132;28;20037;-69
2022/01/09 10:24:00;;;;;;;257.95;86.03;;;;;;;;;;5018171;28;20026;-69
2022/01/09 10:26:28;;;;;;;261.80;93.82;;;;;;;;;;5018083;28;20022;-69
2022/01/09 10:28:56;;;;;;;233.90;82.45;;;;;;;;;;5016977;28;20108;-71
2022/01/09 10:31:26;;;;;;;279.25;97.47;;;;;;;;;;5017904;28;20032;-70
2022/01/09 10:34:01;;;;;;;266.10;91.93;;;;;;;;;;5017772;28;20026;-69
2022/01/09 10:36:33;;;;;;;260.88;89.75;;;;;;;;;;5017704;28;20030;-69
2022/01/09 10:39:04;;;;;;;272.52;97.85;;;;;;;;;;5017786;28;20037;-69
2022/01/09 10:41:50;;;;;;;315.05;118.82;;;;;;;;;;5017444;28;20108;-69
2022/01/09 10:44:21;;;;;;;296.83;100.43;;;;;;;;;;5016287;28;20042;-69
2022/01/09 10:46:56;;;;;;;326.55;121.13;;;;;;;;;;5017638;28;20033;-70
2022/01/09 10:49:24;;;;;;;279.65;100.05;;;;;;;;;;5016186;28;20033;-70
2022/01/09 10:51:52;;;;;;;282.92;96.90;;;;;;;;;;5016998;28;20304;-70
2022/01/09 10:54:29;;;;;;;299.65;103.13;;;;;;;;;;5017196;28;20060;-69
2022/01/09 10:57:13;;;;;;;290.92;103.30;;;;;;;;;;5017254;28;20022;-69
2022/01/09 10:59:40;;;;;;;309.95;107.57;;;;;;;;;;5017331;28;20412;-70
2022/01/09 11:02:10;;;;;;;298.23;105.78;;;;;;;;;;5016174;28;20029;-69
2022/01/09 11:04:38;;;;;;;290.33;105.43;;;;;;;;;;5017388;28;20025;-69
2022/01/09 11:07:07;;;;;;;336.98;121.78;;;;;;;;;;5016147;28;20018;-69
2022/01/09 11:09:34;;;;;;;329.55;114.93;;;;;;;;;;5016219;28;20084;-70
2022/01/09 11:12:03;;;;;;;313.42;110.53;;;;;;;;;;5016096;28;20025;-69
2022/01/09 11:14:35;;;;;;;308.33;108.68;;;;;;;;;;5016815;28;20049;-70
2022/01/09 11:17:05;;;;;;;280.40;97.57;;;;;;;;;;5016963;28;20033;-69
2022/01/09 11:19:35;;;;;;;356.98;123.70;;;;;;;;;;4975741;28;20219;-70
2022/01/09 11:22:05;;;;;;;404.98;135.25;;;;;;;;;;4975989;28;20461;-69
2022/01/09 11:24:51;;;;;;;327.88;111.85;;;;;;;;;;4975694;28;20035;-69
2022/01/09 11:27:24;;;;;;;317.50;112.57;;;;;;;;;;4959746;28;20068;-70
2022/01/09 11:30:09;;;;;;;350.90;128.25;;;;;;;;;;4975749;28;20030;-69
2022/01/09 11:32:54;;;;;;;332.08;115.30;;;;;;;;;;4975916;28;20027;-71
2022/01/09 11:35:29;;;;;;;285.50;97.28;;;;;;;;;;4975608;28;20042;-69
2022/01/09 11:38:13;;;;;;;291.58;96.15;;;;;;;;;;4959318;28;20165;-69
2022/01/09 11:40:41;;;;;;;298.77;98.78;;;;;;;;;;4959198;28;20031;-69
2022/01/09 11:43:13;;;;;;;314.42;102.25;;;;;;;;;;4975642;28;20743;-68
2022/01/09 11:45:57;;;;;;;288.60;98.97;;;;;;;;;;4975564;28;20030;-69
2022/01/09 11:48:42;;;;;;;301.77;99.57;;;;;;;;;;4959326;28;20023;-69
2022/01/09 11:51:09;;;;;;;309.55;103.20;;;;;;;;;;4975303;28;20566;-69
2022/01/09 11:53:58;;;;;;;282.55;96.85;;;;;;;;;;4975373;28;20114;-69
2022/01/09 11:56:49;;;;;;;305.48;109.03;;;;;;;;;;4936979;29;20036;-69
2022/01/09 11:59:27;;;;;;;306.25;109.57;;;;;;;;;;4898994;29;20045;-71
2022/01/09 12:02:14;;;;;;;338.20;119.35;;;;;;;;;;4899062;29;20044;-70
2022/01/09 12:04:46;;;;;;;398.65;147.98;;;;;;;;;;4843122;29;20113;-70
2022/01/09 12:07:31;;;;;;;338.75;118.57;;;;;;;;;;4843180;29;20436;-69
2022/01/09 12:09:59;;;;;;;307.90;100.97;;;;;;;;;;4863562;29;20093;-68
2022/01/09 12:12:37;;;;;;;317.15;119.72;;;;;;;;;;4879741;29;20037;-68
2022/01/09 12:15:07;;;;;;;348.90;135.80;;;;;;;;;;4880022;29;20041;-68
2022/01/09 12:17:40;;;;;;;318.05;111.05;;;;;;;;;;4880063;29;20251;-69
2022/01/09 12:20:16;;;;;;;319.52;107.20;;;;;;;;;;4864160;29;20049;-69
2022/01/09 12:22:51;;;;;;;325.92;118.72;;;;;;;;;;4879661;29;20040;-68
2022/01/09 12:25:29;;;;;;;319.88;115.75;;;;;;;;;;4879717;29;20435;-68
2022/01/09 12:28:08;;;;;;;306.23;106.45;;;;;;;;;;4879890;29;20037;-68
2022/01/09 12:30:49;;;;;;;369.38;132.75;;;;;;;;;;4879854;29;20041;-68
2022/01/09 12:33:27;;;;;;;328.42;115.85;;;;;;;;;;4880019;29;20033;-69
2022/01/09 12:36:07;;;;;;;303.98;100.47;;;;;;;;;;4877691;29;20047;-68
2022/01/09 12:38:36;;;;;;;296.58;99.55;;;;;;;;;;4917433;29;20111;-69
2022/01/09 12:41:05;;;;;;;277.40;95.22;;;;;;;;;;4936963;28;20041;-69
2022/01/09 12:43:34;;;;;;;270.88;90.97;;;;;;;;;;5014516;28;20049;-69
2022/01/09 12:46:21;;;;;;;269.45;89.18;;;;;;;;;;5015644;28;20022;-70
2022/01/09 12:48:53;;;;;;;275.17;90.05;;;;;;;;;;5014540;28;20026;-69
2022/01/09 12:51:19;;;;;;;328.92;122.57;;;;;;;;;;5015488;28;20061;-69
2022/01/09 12:53:48;;;;;;;347.48;118.75;;;;;;;;;;5015839;28;20030;-69
2022/01/09 12:56:17;;;;;;;476.90;167.82;;;;;;;;;;5014556;28;20069;-70
2022/01/09 12:58:52;;;;;;;330.55;112.03;;;;;;;;;;5015601;28;20442;-69
2022/01/09 13:01:36;;;;;;;337.80;114.40;;;;;;;;;;5015461;28;20113;-69
2022/01/09 13:04:18;;;;;;;313.42;102.95;;;;;;;;;;5014342;28;20419;-68
2022/01/09 13:06:49;;;;;;;315.83;111.97;;;;;;;;;;5015774;28;20408;-69
2022/01/09 13:09:18;;;;;;;325.48;117.20;;;;;;;;;;5014392;28;20030;-67
2022/01/09 13:12:07;;;;;;;339.02;127.72;;;;;;;;;;5015572;28;20026;-68
2022/01/09 13:14:36;;;;;;;387.88;131.55;;;;;;;;;;5015661;28;20068;-70
2022/01/09 13:17:05;;;;;;;298.00;101.22;;;;;;;;;;5017674;28;20077;-70
2022/01/09 13:19:33;;;;;;;338.80;121.93;;;;;;;;;;5015805;28;20026;-70
2022/01/09 13:22:02;;;;;;;290.30;102.15;;;;;;;;;;5016586;28;20037;-69
2022/01/09 13:24:30;;;;;;;277.90;92.38;;;;;;;;;;5033221;28;20068;-70
2022/01/09 13:27:06;;;;;;;243.95;82.22;;;;;;;;;;5039997;28;20022;-70
2022/01/09 13:29:39;;;;;;;248.40;79.57;;;;;;;;;;5040167;28;20068;-71
2022/01/09 13:32:07;;;;;;;235.52;74.80;;;;;;;;;;5039859;28;20025;-70
2022/01/09 13:34:41;;;;;;;246.77;76.40;;;;;;;;;;5039829;28;20406;-70
2022/01/09 13:37:11;;;;;;;251.65;79.55;;;;;;;;;;5039928;28;20108;-70
2022/01/09 13:39:45;;;;;;;231.50;74.05;;;;;;;;;;5038515;28;20055;-70
2022/01/09 13:42:32;;;;;;;241.00;79.10;;;;;;;;;;5039495;28;20029;-69
2022/01/09 13:45:15;;;;;;;241.70;80.80;;;;;;;;;;5039956;28;20034;-70
2022/01/09 13:47:45;;;;;;;240.77;79.90;;;;;;;;;;5039798;28;20037;-70
2022/01/09 13:50:13;;;;;;;318.17;104.47;;;;;;;;;;5039953;28;20072;-69
2022/01/09 13:52:39;;;;;;;257.65;89.60;;;;;;;;;;5040811;28;20025;-70
2022/01/09 13:55:12;;;;;;;297.45;101.70;;;;;;;;;;5040795;28;20029;-69
2022/01/09 13:58:09;;;;;;;305.75;103.63;;;;;;;;;;5042711;28;20029;-70
2022/01/09 14:00:38;;;;;;;375.27;127.18;;;;;;;;;;5009679;28;20128;-69
2022/01/09 14:03:06;;;;;;;418.27;143.85;;;;;;;;;;5011683;28;20228;-70
2022/01/09 14:05:38;;;;;;;408.98;139.15;;;;;;;;;;5011028;28;20038;-70
2022/01/09 14:08:06;;;;;;;345.55;123.45;;;;;;;;;;4997529;28;20050;-70
2022/01/09 14:10:38;;;;;;;376.70;137.18;;;;;;;;;;5012454;28;20030;-70
2022/01/09 14:13:20;;;;;;;337.10;123.28;;;;;;;;;;5011822;28;20526;-69
2022/01/09 14:15:49;;;;;;;441.77;161.13;;;;;;;;;;4992832;28;20088;-69
2022/01/09 14:18:46;;;;;;;386.77;144.02;;;;;;;;;;5009503;28;20046;-69